Main page
METAR-TAF:

METAR-TAF

Airports :

Simón Bolívar International Airport

Santa Marta, Colombia

latitude: 11-08N, longitude: 074-14W, elevation: 4 m

Current weather observation

The report was made 4 hours and 55 minutes ago, at 05:00 UTC
Wind 4 kt from the Northeast
Temperature 28°C
Humidity 79%
Pressure 1010 hPa
Visibility 10 km or more
Few clouds at a height of 2000 ft

METAR: SKSM 180500Z 04004KT 9999 FEW020 28/24 Q1010

Time: 04:55 (09:55 UTC)

Forecast

The report was made 5 hours and 25 minutes ago, at 04:30 UTC
Forecast valid from 18 at 06 UTC to 19 at 06 UTC
Wind 6 kt from the North
Visibility 10 km or more
Few clouds at a height of 2000 ft
Temporary
from 18 at 20 UTC to 18 at 23 UTC
Few clouds at a height of 2000 ft, Cumulonimbus.
rain,

TAF: SKSM 180430Z 1806/1906 01006KT 9999 FEW020 TEMPO 1820/1823 RA FEW020CB TX34/1820Z TN25/1810Z

Weather observations and forecasts of more than 4000 airports (METAR and TAF reports).

The available stations are represented by yellow and red dots on the map.

Hover mouse over dot to see the name of the station.

Then click to see weather observations and forecasts.

To change the map : click on the green buttons with a black cross to zoom in, on the green button with a dash to zoom out, or on the green arrows for adjacent maps.


METAR-TAF: